今日のアクセス数

    岡山グライダークラブ活動状況掲示板あなたは無料カウンター人目の訪問者です

岡山グライダークラブ
岡山市浦安南町639-1 岡南飛行場
 使用機:シャイベ式 SF25C型 ファルケ   JA2330
      ヴァレンティン式17E型 タイフーン  JA2342
 練習日:毎日曜日  クラブルーム:電話 086-265-1810
この掲示板は岡山グライダークラブの活動状況をお知らせする掲示板です。
!!!この掲示板は投稿規制をしています。!!!
クラブ関連各種情報は 岡山グライダークラブクラブルーム      を       .
  ブリーフイング情報は  岡山グライダークラブブリーフィングルーム  をご覧下さい。 .
※写真はクリックすると拡大して見ることが出来ます。
岡南飛行場へのアクセス等は 岡南飛行場管理事務所 をご覧ください。
クラブの ホームページ ができました。

ページ 1 (1〜10)ホームページへ戻る

08月02日
by OGC at 2020/8/3(月) 00:43:12 No.20200803003913 コメント】  削除 引用
1024 x 768 x 83,757バイト
No.1

08月02日
本日の参加者
  会員      17名
  その他      0名


@本日の様子






METAR
RJBK 020000Z VRB02KT 10KM FEW006ST SCT015CU BKN025CU 27/25 Q1013 A2992
RJOB 020000Z VRB01KT 9000 FEW002 SCT007 BKN010 27/24 Q1014
RJOT 020000Z 30003KT 240V040 9999 FEW025 BKN/// 28/24 Q1014
RJOA 020000Z 27005KT 230V310 9999 FEW015 BKN/// 27/23 Q1014
TAF
RJOB 012314Z 0200/0306 12004KT 9999 FEW025 SCT040
     BECMG 0201/0203 20006KT
     BECMG 0210/0212 03004KT
     BECMG 0300/0303 20005KT
RJOT 012305Z 0200/0306 28005KT 9999 FEW025
     BECMG 0210/0212 15005KT
RJOA 012308Z 0200/0306 23004KT 9999 FEW015 SCT025

本日は、耐空検査前の整備でフライトはありません。
整備は各自手分けをして進めた結果、翼の組立まで完了しました。

解散    17:00

本日のフライトはありません。

 データ復旧.ハードディスク.エラー.ino    RAID:データ復旧:ino

07月26日
by OGC at 2020/7/26(日) 20:24:40 No.20200726200723 コメント】  削除 引用
1024 x 768 x 61,835バイト
No.1

07月26日
本日の参加者
  会員      15名
  その他      0名


@本日のイメージ画像






METAR
RJBK 260000Z 08005KT 10KM FEW035CU SCT045CU BKN150AC 26/24 Q1010 A2987
RJOB 260000Z 07005KT 5000 BR BCFG FEW000 SCT006 BKN070 24/22 Q1012
RJOT 260000Z 10003KT 050V120 9999 FEW020 SCT080 BKN150 25/22 Q1012
RJOA 260000Z 09003KT 040V120 7000 -SHRA PRFG FEW000 SCT035 BKN060 22/21 Q1012
TAF
RJOB 252307Z 2600/2706 10006KT 8000 -SHRA FEW003 SCT010 BKN020
     TEMPO 2600/2605 4000 SHRA BR BCFG FEW000 SCT005 BKN008
     TEMPO 2615/2621 4000 -SHRA BR BCFG FEW000 BKN008 BKN015
RJOT 252310Z 2600/2706 08004KT 6000 -SHRA FEW003 SCT008 BKN020
     TEMPO 2600/2603 4000 -SHRA BR FEW003 BKN008 BKN015
     TEMPO 2603/2609 3000 SHRA BR FEW002 SCT006 BKN008
     TEMPO 2609/2618 4000 -SHRA BR FEW003 BKN008 BKN015
RJOA 252308Z 2600/2706 12005KT 6000 -SHRA FEW008 SCT015 BKN030
     TEMPO 2600/2609 2000 SHRA BR BCFG FEW000 BKN008 BKN015
     BECMG 2700/2703 20006KT

本日は、さすが「晴れの岡南飛行場」、午前中、雨に降られず4フライトできました。
午後からは、耐空検査前の整備が始まりました。みんな、要領が分かってきて手分けしながら
進められたので、整備も早く終わりそうです。


解散    14:00

1番機  10:20離陸 撤収機  12:30着陸 

SF25C JA2330 ファルケ     04Flt.1h25hmin  
17E   JA2342 タイフーン    00Flt.0h00min  
合計                    04Flt.1h25min

07月19日
by OGC at 2020/7/19(日) 23:27:32 No.20200719232113 コメント】  削除 引用
1024 x 768 x 65,793バイト
No.1

07月19日
本日の参加者
  会員      16名
  その他      0名


@本日の様子






METAR
RJBK 190000Z VRB02KT 20KM FEW015CU SCT025CU 27/23 Q1010 A2985
RJOB 190000Z VRB03KT 9999 FEW010 SCT015 26/22 Q1012
RJOT 190000Z VRB02KT 9999 FEW015 SCT140 26/22 Q1012
RJOA 190000Z VRB02KT CAVOK 24/20 Q1012
TAF
RJOB 182309Z 1900/2006 13004KT 9999 FEW015 SCT035
     BECMG 1901/1903 22005KT
     BECMG 1912/1915 05005KT
     BECMG 1921/2000 22005KT
RJOT 182317Z 1900/2006 04006KT 9999 FEW015 SCT050
     TEMPO 1912/1915 4000 -SHRA BR FEW002 SCT005 BKN008
     BECMG 1921/2000 33004KT
RJOA 182308Z 1900/2006 14005KT 9999 FEW020 BKN035
     BECMG 1902/1904 20004KT
     TEMPO 1911/1915 4000 -SHRA BR FEW002 SCT004 BKN008
     TEMPO 1915/1921 3000 BR FEW001 SCT002 BKN004
     TEMPO 1921/2000 4000 BR FEW002 SCT004 BKN008

本日は曇りで風は弱く絶好の着陸練習日和、訓練生はTGL訓練、一方、タイフーンは耐空検査前の整備業務を行いました。



解散    18:00

1番機  10:50離陸 撤収機  17:35着陸 

SF25C JA2330 ファルケ     11Flt.3h25hmin  
17E   JA2342 タイフーン    00Flt.0h00min  
合計                    15Flt.3h25min

07月12日
by OGC at 2020/7/12(日) 21:18:03 No.20200712205748 コメント】  削除 引用
1024 x 768 x 105,913バイト
No.1

07月12日
本日の参加者
  会員      18名
  その他      0名


@本日の様子






METAR
RJBK 120000Z 29004KT 250V320 25KM FEW030CU SCT180AC BKN/// 26/20 Q1010 A2983
RJOB 120000Z 29005KT 250V350 9999 FEW020 BKN/// 24/19 Q1011
RJOT 120000Z 23006KT 9999 FEW005 SCT040 BKN180 24/22 Q1011
RJOA 120000Z VRB02KT 9999 FEW015 SCT020 BKN/// 23/18 Q1012
TAF
RJOB 112305Z 1200/1306 36007KT 9999 FEW020 SCT045
     BECMG 1205/1207 20004KT
     BECMG 1221/1300 08007KT
     BECMG 1300/1303 4000 -SHRA BR FEW001 SCT005 BKN008
     TEMPO 1303/1306 1500 SHRA BR BCFG FEW000 SCT003 BKN005
RJOT 112308Z 1200/1306 26006KT 9999 FEW015 SCT035
     BECMG 1215/1218 06004KT
     TEMPO 1300/1306 4000 -SHRA BR
RJOA 112305Z 1200/1306 20004KT 9999 FEW015
     BECMG 1221/1300 4000 -SHRA BR
     TEMPO 1300/1306 1500 -SHRA BR FEW002 BKN008 BKN015

本日は曇りで風は弱くほぼ正対風で着陸練習日和、訓練生はTGL訓練や笠岡方面へのNAV訓練、ライセンサーはタイフーンの50時間点検までの時間を気にしながら短めのフライトを行いました。
タイフーンはフライト後に翼を引き抜き耐空検査前の整備を開始しました。来週にはファルケも翼を引き抜き耐空検査前の整備を本格的に開始します。



解散    18:30

1番機  10:30離陸 撤収機  18:00着陸 

SF25C JA2330 ファルケ     10Flt.4h55min  
17E   JA2342 タイフーン    05Flt.1h25min  
合計                    15Flt.6h20min
07月05日
by OGC at 2020/7/5(日) 20:08:43 No.20200705200220 コメント】  削除 引用
1024 x 768 x 74,202バイト
No.1

07月05日
本日の参加者
  会員      16名
  その他      0名


@本日の様子






METAR
RJOB 050000Z VRB02KT 9999 FEW005 SCT010 BKN020 23/20 Q1007
RJOT 050000Z VRB02KT 9999 FEW006 SCT010 BKN070 23/21 Q1007
RJOA 050000Z VRB02KT 9999 FEW002 SCT012 BKN060 22/20 Q1008
TAF
RJOB 042309Z 0500/0606 20005KT 9999 FEW015 BKN045
     BECMG 0508/0510 11005KT
     BECMG 0600/0603 22005KT
RJOT 042313Z 0500/0606 30006KT 9999 FEW020 SCT030 BKN050
     BECMG 0501/0503 05007KT
     BECMG 0508/0510 20004KT
     BECMG 0515/0518 15005KT
     BECMG 0521/0600 27006KT
RJOA 042312Z 0500/0606 20005KT 9999 FEW015 SCT025 BKN040
     BECMG 0506/0508 14005KT
     BECMG 0600/0603 23006KT

本日はシーリングが低く日差しが出てくれればと願っていると青空が顔を覗かせてくれました。
訓練生はTGL訓練や与島や備前方面のNAV訓練、ライセンサーは高松空港でTGL訓練を行っていました。



解散    18:50

1番機  10:50離陸 撤収機  17:30着陸 

SF25C JA2330 ファルケ     10Flt.4h05min  
17E   JA2342 タイフーン    06Flt.2h45min  
合計                    16Flt.6h50min
06月28日
by OGC at 2020/6/28(日) 23:25:06 No.20200628232235 コメント】  削除 引用
1024 x 768 x 68,664バイト
No.1

06月28日
本日の参加者
  会員      14名
  その他      1名


@本日の様子






METAR
RJBK 280000Z 25007KT 15KM FEW010CU SCT025CU BKN060SC 25/23 Q1001 A2958
RJOB 280000Z 24003KT 200V290 4500 BR BCFG FEW000 SCT005 BKN010 24/23 Q1002
RJOT 280000Z 25010KT 9999 VCSH FEW005 SCT015 BKN040 23/21 Q1002
RJOA 280000Z 27005KT 230V300 9999 FEW002 SCT020 BKN/// 23/20 Q1003
TAF
RJOB 272306Z 2800/2906 24004KT 3000 -SHRA BR BCFG FEW000 SCT005 BKN008
     TEMPO 2800/2801 1500 -SHRA BR BCFG FEW000 SCT001 BKN003
     BECMG 2801/2803 36005KT 9999 NSW FEW025 BKN045
     BECMG 2900/2903 20006KT
RJOT 272309Z 2800/2906 26008KT 9999 FEW020
     BECMG 2812/2815 15005KT
RJOA 272306Z 2800/2906 32009KT 9999 FEW025
     BECMG 2821/2900 15005KT

本日は湿度が高くジメジメした一日で日差しが少なく、サーマルもほとんどないコンディションでした。
訓練生はTGL訓練やNAV訓練、ライセンサーは宇多津、笠岡へNAVに行っていました。



解散    18:50

1番機  11:00離陸 撤収機  18:25着陸 

SF25C JA2330 ファルケ     12Flt.4h00min  
17E   JA2342 タイフーン    03Flt.1h30min  
合計                    15Flt.5h30min
06月21日
by OGC at 2020/6/22(月) 00:04:16 No.20200621235401 コメント】  削除 引用
1024 x 768 x 74,564バイト
No.1

06月21日
本日の参加者
  会員      16名
  その他      1名


@本日の様子




METAR
RJBK 210000Z 07006KT 030V090 30KM BKN/// 23/17 Q1010 A2982
RJOB 210000Z VRB03KT 9999 FEW020 BKN/// 21/15 Q1010
RJOT 210000Z 06008KT 9999 FEW015 BKN/// 21/17 Q1010
RJOA 210000Z 11004KT 080V160 9999 FEW015 BKN/// 20/15 Q1010
TAF
RJOB 202308Z 2100/2206 12006KT 9999 FEW030
     BECMG 2200/2203 21008KT
RJOT 202309Z 2100/2206 06010KT 9999 FEW025 SCT045
     BECMG 2110/2112 15005KT
RJOA 202308Z 2100/2206 13007KT 9999 FEW025


本日は曇り、風も弱くほぼ正対風で、着陸訓練日和。
訓練生はTGL訓練やNAV訓練、ライセンサーは高松空港でTGL訓練などを行っていました。



解散    18:50

1番機  10:15離陸 撤収機  18:20着陸 

SF25C JA2330 ファルケ     15Flt.3h50min  
17E   JA2342 タイフーン    05Flt.2h05min  
合計                    20Flt.5h55min
新型コロナウイルス対策(ゲストの受け入れ基準緩和のお知らせ)
by OGC at 2020/6/18(木) 23:49:47 No.20200618234342 コメント】  削除 引用

各位

移動制限解除を受け、訓練時の感染防止対策でゲストの受け入れ基準を緩和しました。

近畿、中国、四国の各県からのゲスト受入を再開

感染防止対策:http://okayamagliderclub.web.fc2.com/Coronameasures6.pdf


06月14日
by OGC at 2020/6/14(日) 21:18:47 No.20200614211631 コメント】  削除 引用
1477 x 1108 x 96,059バイト <この画像は大きいので別画面で表示します>
No.1

06月14日
本日の参加者
  会員       9名
  その他      0名


@本日の様子




METAR
RJOB 140000Z 20005KT 170V230 1500 R07/P2000N BR BCFG FEW000 SCT003 BKN010 23/23 Q1008
RJOT 140000Z VRB01KT 9999 FEW001 SCT180 BKN/// 26/24 Q1008
RJOA 140000Z 23003KT 190V270 9999 FEW001 SCT020 BKN170 25/23 Q1009
TAF
RJOB 132311Z 1400/1506 23009KT 1500 BR BCFG FEW000 SCT005 BKN008
     TEMPO 1400/1401 0700 FG FEW000 SCT002 BKN005
     BECMG 1401/1403 9000 NSW FEW005 SCT010 BKN020
     TEMPO 1406/1412 3000 TSRA BR FEW001 BKN008 BKN015 FEW020CB
RJOT 132309Z 1400/1506 26008KT 9999 FEW010 SCT035
     TEMPO 1408/1411 4000 SHRA BR
     BECMG 1409/1411 26020KT
     TEMPO 1411/1415 26021G32KT
RJOA 132306Z 1400/1506 23007KT 8000 -SHRA FEW001 SCT008 BKN015
     TEMPO 1405/1408 4000 SHRA BR BCFG FEW000 SCT003 BKN005
     TEMPO 1408/1410 3000 TSRA BR BCFG FEW000 SCT003 BKN005 FEW020CB


本日は大勢の方が雨で飛べないと予想し、先週の記録更新から一転、参加会員9名に半減しました。
そこは「晴れの国、岡山」のパワーがさく裂し、15時頃までフライトできました。




解散    15:00

1番機  10:15離陸 撤収機  14:35着陸 

SF25C JA2330 ファルケ     07Flt.2h25min  
17E   JA2342 タイフーン    02Flt.0h40min  
合計                    09Flt.3h05min
06月07日
by OGC at 2020/6/7(日) 20:46:02 No.20200607201001 コメント】  削除 引用
1024 x 768 x 58,601バイト
No.1

06月07日
本日の参加者
  会員      19名
  その他      0名


@本日の様子




METAR
RJBK 070000Z 08005KT 050V130 25KM FEW025CU 24/13 Q1010 A2985
RJOB 070000Z 06004KT 350V130 9999 FEW025 23/12 Q1011
RJOT 070000Z 08006KT 040V120 9999 FEW025 23/17 Q1011
RJOA 070000Z 13004KT 070V190 9999 FEW015 SCT020 23/18 Q1011
TAF
RJOB 062308Z 0700/0806 03008KT 9999 FEW030
RJOT 062309Z 0700/0806 03006KT 9999 FEW030
RJOA 062306Z 0700/0806 16007KT 9999 FEW030
     BECMG 0710/0712 34005KT
     BECMG 0721/0800 14005KT


新型コロナの影響で、しばらくの間、活動を自粛していましたので、出席人数が19名となり、またしても記録を更新してしまいました。
天候は雲がほとんどなく、南風の横風でした。ということで、横風時の着陸談義に花が咲いていたようです。



解散    18:30

1番機  10:30離陸 撤収機  18:25着陸 

SF25C JA2330 ファルケ     13Flt.4h20min  
17E   JA2342 タイフーン    06Flt.2h35min  
合計                    19Flt.6h55min

 データ復旧.ハードディスク.エラー.ino    RAID:データ復旧:ino

ホームページへ 全 51 件 [ 1 2 3 4 5 6 ]

モータースポーツ | 管理者へメール | お知らせ | 一括削除
携帯から使う方法 | ヘルプ | 利用規約 | 違反報告 | 管理パネル



- 無料レンタル掲示板 -